Terminal Aerodrome Forecast
Issued by NWS

Home | Current Version | Previous Version | Text Only | Print | Product List | Glossary On
Versions: 1 2 3 4 5 6 7 8 9 10 11 12 13 14
544
FTUS43 KJKL 220528
TAFSME
TAF
KSME 220528Z 2206/2306 VRB04KT P6SM OVC060 WS020/18040KT
     FM221100 17007KT P6SM SCT250 WS020/18040KT
     FM221500 18012G24KT P6SM BKN100
     FM221800 18014G26KT P6SM OVC070
     FM222000 18014G24KT 3SM -SHRA VCTS OVC030CB
     FM222300 18014G23KT 3SM -SHRA BKN015=

USA.gov is the U.S. government's official web portal to all federal, state and local government web resources and services.